sensor_id;sensor_type;location;lat;lon;timestamp;P1;durP1;ratioP1;P2;durP2;ratioP2
6513;SDS011;3290;47.716;9.070;2024-02-28T00:01:26;31.20;;;15.90;;
6513;SDS011;3290;47.716;9.070;2024-02-28T00:03:52;32.00;;;18.60;;
6513;SDS011;3290;47.716;9.070;2024-02-28T00:06:17;29.40;;;16.63;;
6513;SDS011;3290;47.716;9.070;2024-02-28T00:08:43;28.00;;;16.10;;
6513;SDS011;3290;47.716;9.070;2024-02-28T00:11:09;28.90;;;16.20;;
6513;SDS011;3290;47.716;9.070;2024-02-28T00:13:34;34.13;;;16.83;;
6513;SDS011;3290;47.716;9.070;2024-02-28T00:15:59;25.63;;;15.00;;
6513;SDS011;3290;47.716;9.070;2024-02-28T00:18:25;33.73;;;17.40;;
6513;SDS011;3290;47.716;9.070;2024-02-28T00:20:50;36.53;;;18.30;;
6513;SDS011;3290;47.716;9.070;2024-02-28T00:23:15;28.70;;;15.93;;
6513;SDS011;3290;47.716;9.070;2024-02-28T00:25:41;33.47;;;17.50;;
6513;SDS011;3290;47.716;9.070;2024-02-28T00:28:06;26.20;;;15.20;;
6513;SDS011;3290;47.716;9.070;2024-02-28T00:30:32;27.70;;;16.10;;
6513;SDS011;3290;47.716;9.070;2024-02-28T00:32:58;27.93;;;15.83;;
6513;SDS011;3290;47.716;9.070;2024-02-28T00:35:23;28.07;;;16.40;;
6513;SDS011;3290;47.716;9.070;2024-02-28T00:37:48;30.83;;;16.00;;
6513;SDS011;3290;47.716;9.070;2024-02-28T00:40:14;31.90;;;17.47;;
6513;SDS011;3290;47.716;9.070;2024-02-28T00:42:39;29.63;;;16.00;;
6513;SDS011;3290;47.716;9.070;2024-02-28T00:45:05;32.07;;;17.10;;
6513;SDS011;3290;47.716;9.070;2024-02-28T00:47:33;33.47;;;16.80;;
6513;SDS011;3290;47.716;9.070;2024-02-28T00:49:59;29.33;;;17.40;;
6513;SDS011;3290;47.716;9.070;2024-02-28T00:52:24;39.70;;;17.63;;
6513;SDS011;3290;47.716;9.070;2024-02-28T00:54:50;35.50;;;18.90;;
6513;SDS011;3290;47.716;9.070;2024-02-28T00:57:16;34.53;;;16.97;;
6513;SDS011;3290;47.716;9.070;2024-02-28T00:59:41;37.77;;;17.40;;
6513;SDS011;3290;47.716;9.070;2024-02-28T01:02:08;32.10;;;17.07;;
6513;SDS011;3290;47.716;9.070;2024-02-28T01:04:33;26.40;;;16.73;;
6513;SDS011;3290;47.716;9.070;2024-02-28T01:06:58;31.47;;;17.43;;
6513;SDS011;3290;47.716;9.070;2024-02-28T01:09:24;31.00;;;16.80;;
6513;SDS011;3290;47.716;9.070;2024-02-28T01:11:49;30.20;;;17.07;;
6513;SDS011;3290;47.716;9.070;2024-02-28T01:14:14;33.60;;;17.90;;
6513;SDS011;3290;47.716;9.070;2024-02-28T01:16:40;28.23;;;16.50;;
6513;SDS011;3290;47.716;9.070;2024-02-28T01:19:05;32.07;;;18.60;;
6513;SDS011;3290;47.716;9.070;2024-02-28T01:21:30;30.97;;;16.87;;
6513;SDS011;3290;47.716;9.070;2024-02-28T01:23:56;32.83;;;16.27;;
6513;SDS011;3290;47.716;9.070;2024-02-28T01:26:21;29.50;;;18.17;;
6513;SDS011;3290;47.716;9.070;2024-02-28T01:28:47;34.23;;;18.20;;
6513;SDS011;3290;47.716;9.070;2024-02-28T01:31:13;30.10;;;16.57;;
6513;SDS011;3290;47.716;9.070;2024-02-28T01:33:39;38.57;;;17.07;;
6513;SDS011;3290;47.716;9.070;2024-02-28T01:36:08;30.47;;;15.30;;
6513;SDS011;3290;47.716;9.070;2024-02-28T01:38:33;29.20;;;15.80;;
6513;SDS011;3290;47.716;9.070;2024-02-28T01:40:59;29.33;;;15.67;;
6513;SDS011;3290;47.716;9.070;2024-02-28T01:43:24;30.37;;;17.20;;
6513;SDS011;3290;47.716;9.070;2024-02-28T01:45:50;28.27;;;14.27;;
6513;SDS011;3290;47.716;9.070;2024-02-28T01:48:15;30.50;;;16.80;;
6513;SDS011;3290;47.716;9.070;2024-02-28T01:50:41;25.23;;;14.93;;
6513;SDS011;3290;47.716;9.070;2024-02-28T01:53:06;27.93;;;13.87;;
6513;SDS011;3290;47.716;9.070;2024-02-28T01:55:34;30.70;;;16.70;;
6513;SDS011;3290;47.716;9.070;2024-02-28T01:58:00;30.27;;;15.43;;
6513;SDS011;3290;47.716;9.070;2024-02-28T02:00:27;33.90;;;16.30;;
6513;SDS011;3290;47.716;9.070;2024-02-28T02:02:53;27.60;;;16.20;;
6513;SDS011;3290;47.716;9.070;2024-02-28T02:05:19;27.47;;;16.00;;
6513;SDS011;3290;47.716;9.070;2024-02-28T02:07:46;29.57;;;15.63;;
6513;SDS011;3290;47.716;9.070;2024-02-28T02:10:13;29.50;;;16.03;;
6513;SDS011;3290;47.716;9.070;2024-02-28T02:12:39;31.40;;;16.20;;
6513;SDS011;3290;47.716;9.070;2024-02-28T02:15:04;24.50;;;13.47;;
6513;SDS011;3290;47.716;9.070;2024-02-28T02:17:30;23.70;;;14.40;;
6513;SDS011;3290;47.716;9.070;2024-02-28T02:19:55;31.27;;;15.40;;
6513;SDS011;3290;47.716;9.070;2024-02-28T02:22:21;26.33;;;14.00;;
6513;SDS011;3290;47.716;9.070;2024-02-28T02:24:48;26.10;;;14.13;;
6513;SDS011;3290;47.716;9.070;2024-02-28T02:27:13;24.50;;;13.10;;
6513;SDS011;3290;47.716;9.070;2024-02-28T02:29:39;26.50;;;15.10;;
6513;SDS011;3290;47.716;9.070;2024-02-28T02:32:04;27.87;;;15.13;;
6513;SDS011;3290;47.716;9.070;2024-02-28T02:34:30;24.30;;;14.87;;
6513;SDS011;3290;47.716;9.070;2024-02-28T02:36:55;28.03;;;14.70;;
6513;SDS011;3290;47.716;9.070;2024-02-28T02:39:20;26.00;;;14.30;;
6513;SDS011;3290;47.716;9.070;2024-02-28T02:41:46;21.63;;;12.77;;
6513;SDS011;3290;47.716;9.070;2024-02-28T02:44:12;26.00;;;13.17;;
6513;SDS011;3290;47.716;9.070;2024-02-28T02:46:38;22.37;;;13.50;;
6513;SDS011;3290;47.716;9.070;2024-02-28T02:49:04;23.30;;;13.30;;
6513;SDS011;3290;47.716;9.070;2024-02-28T02:51:29;24.97;;;13.67;;
6513;SDS011;3290;47.716;9.070;2024-02-28T02:53:55;23.80;;;12.77;;
6513;SDS011;3290;47.716;9.070;2024-02-28T02:56:20;26.07;;;13.10;;
6513;SDS011;3290;47.716;9.070;2024-02-28T02:58:45;25.03;;;13.50;;
6513;SDS011;3290;47.716;9.070;2024-02-28T03:01:11;25.83;;;13.33;;
6513;SDS011;3290;47.716;9.070;2024-02-28T03:03:36;25.40;;;13.40;;
6513;SDS011;3290;47.716;9.070;2024-02-28T03:06:02;24.00;;;12.03;;
6513;SDS011;3290;47.716;9.070;2024-02-28T03:08:29;24.17;;;12.73;;
6513;SDS011;3290;47.716;9.070;2024-02-28T03:10:55;25.80;;;14.00;;
6513;SDS011;3290;47.716;9.070;2024-02-28T03:13:20;23.30;;;13.10;;
6513;SDS011;3290;47.716;9.070;2024-02-28T03:15:46;21.10;;;13.20;;
6513;SDS011;3290;47.716;9.070;2024-02-28T03:18:12;27.37;;;14.30;;
6513;SDS011;3290;47.716;9.070;2024-02-28T03:20:37;20.30;;;11.97;;
6513;SDS011;3290;47.716;9.070;2024-02-28T03:23:04;30.93;;;12.63;;
6513;SDS011;3290;47.716;9.070;2024-02-28T03:25:31;23.37;;;12.67;;
6513;SDS011;3290;47.716;9.070;2024-02-28T03:27:57;21.47;;;12.00;;
6513;SDS011;3290;47.716;9.070;2024-02-28T03:30:23;23.30;;;13.43;;
6513;SDS011;3290;47.716;9.070;2024-02-28T03:32:49;28.20;;;13.73;;
6513;SDS011;3290;47.716;9.070;2024-02-28T03:35:14;24.03;;;11.77;;
6513;SDS011;3290;47.716;9.070;2024-02-28T03:37:39;24.20;;;13.27;;
6513;SDS011;3290;47.716;9.070;2024-02-28T03:40:05;24.93;;;13.23;;
6513;SDS011;3290;47.716;9.070;2024-02-28T03:42:31;26.10;;;14.20;;
6513;SDS011;3290;47.716;9.070;2024-02-28T03:44:56;26.57;;;13.93;;
6513;SDS011;3290;47.716;9.070;2024-02-28T03:47:22;24.33;;;13.50;;
6513;SDS011;3290;47.716;9.070;2024-02-28T03:49:47;22.40;;;12.47;;
6513;SDS011;3290;47.716;9.070;2024-02-28T03:52:12;22.57;;;13.47;;
6513;SDS011;3290;47.716;9.070;2024-02-28T03:54:38;33.50;;;14.83;;
6513;SDS011;3290;47.716;9.070;2024-02-28T03:57:07;26.73;;;13.60;;
6513;SDS011;3290;47.716;9.070;2024-02-28T03:59:32;21.43;;;13.70;;
6513;SDS011;3290;47.716;9.070;2024-02-28T04:01:58;25.00;;;13.47;;
6513;SDS011;3290;47.716;9.070;2024-02-28T04:04:23;26.07;;;14.53;;
6513;SDS011;3290;47.716;9.070;2024-02-28T04:06:48;24.70;;;13.67;;
6513;SDS011;3290;47.716;9.070;2024-02-28T04:09:14;22.77;;;13.70;;
6513;SDS011;3290;47.716;9.070;2024-02-28T04:11:39;29.30;;;13.50;;
6513;SDS011;3290;47.716;9.070;2024-02-28T04:14:04;26.20;;;13.30;;
6513;SDS011;3290;47.716;9.070;2024-02-28T04:16:30;22.73;;;13.40;;
6513;SDS011;3290;47.716;9.070;2024-02-28T04:18:55;23.47;;;14.03;;
6513;SDS011;3290;47.716;9.070;2024-02-28T04:21:20;24.87;;;12.77;;
6513;SDS011;3290;47.716;9.070;2024-02-28T04:23:46;27.23;;;14.63;;
6513;SDS011;3290;47.716;9.070;2024-02-28T04:26:11;24.60;;;13.70;;
6513;SDS011;3290;47.716;9.070;2024-02-28T04:28:37;28.87;;;14.90;;
6513;SDS011;3290;47.716;9.070;2024-02-28T04:31:02;25.90;;;15.07;;
6513;SDS011;3290;47.716;9.070;2024-02-28T04:33:28;26.17;;;13.63;;
6513;SDS011;3290;47.716;9.070;2024-02-28T04:35:54;28.77;;;14.50;;
6513;SDS011;3290;47.716;9.070;2024-02-28T04:38:19;28.20;;;14.60;;
6513;SDS011;3290;47.716;9.070;2024-02-28T04:40:44;22.40;;;13.90;;
6513;SDS011;3290;47.716;9.070;2024-02-28T04:43:10;26.90;;;14.00;;
6513;SDS011;3290;47.716;9.070;2024-02-28T04:45:35;23.43;;;13.53;;
6513;SDS011;3290;47.716;9.070;2024-02-28T04:48:00;28.37;;;13.77;;
6513;SDS011;3290;47.716;9.070;2024-02-28T04:50:26;24.50;;;13.53;;
6513;SDS011;3290;47.716;9.070;2024-02-28T04:52:51;24.70;;;13.47;;
6513;SDS011;3290;47.716;9.070;2024-02-28T04:55:17;23.73;;;13.27;;
6513;SDS011;3290;47.716;9.070;2024-02-28T04:57:43;23.77;;;13.47;;
6513;SDS011;3290;47.716;9.070;2024-02-28T05:00:08;27.67;;;12.70;;
6513;SDS011;3290;47.716;9.070;2024-02-28T05:02:34;23.57;;;14.03;;
6513;SDS011;3290;47.716;9.070;2024-02-28T05:04:59;19.43;;;12.67;;
6513;SDS011;3290;47.716;9.070;2024-02-28T05:07:25;25.80;;;12.13;;
6513;SDS011;3290;47.716;9.070;2024-02-28T05:09:50;20.10;;;11.90;;
6513;SDS011;3290;47.716;9.070;2024-02-28T05:12:16;19.33;;;11.57;;
6513;SDS011;3290;47.716;9.070;2024-02-28T05:14:41;21.90;;;12.50;;
6513;SDS011;3290;47.716;9.070;2024-02-28T05:17:06;21.10;;;11.90;;
6513;SDS011;3290;47.716;9.070;2024-02-28T05:19:32;18.00;;;11.37;;
6513;SDS011;3290;47.716;9.070;2024-02-28T05:21:57;17.67;;;10.90;;
6513;SDS011;3290;47.716;9.070;2024-02-28T05:24:22;20.57;;;11.27;;
6513;SDS011;3290;47.716;9.070;2024-02-28T05:26:48;18.90;;;10.40;;
6513;SDS011;3290;47.716;9.070;2024-02-28T05:29:13;18.87;;;11.40;;
6513;SDS011;3290;47.716;9.070;2024-02-28T05:31:38;25.10;;;12.77;;
6513;SDS011;3290;47.716;9.070;2024-02-28T05:34:04;22.10;;;12.00;;
6513;SDS011;3290;47.716;9.070;2024-02-28T05:36:30;19.10;;;11.07;;
6513;SDS011;3290;47.716;9.070;2024-02-28T05:38:57;28.00;;;13.07;;
6513;SDS011;3290;47.716;9.070;2024-02-28T05:41:24;18.50;;;10.73;;
6513;SDS011;3290;47.716;9.070;2024-02-28T05:43:50;19.80;;;11.60;;
6513;SDS011;3290;47.716;9.070;2024-02-28T05:46:16;22.07;;;11.40;;
6513;SDS011;3290;47.716;9.070;2024-02-28T05:48:45;20.47;;;10.37;;
6513;SDS011;3290;47.716;9.070;2024-02-28T05:51:11;19.30;;;11.03;;
6513;SDS011;3290;47.716;9.070;2024-02-28T05:53:38;20.27;;;12.03;;
6513;SDS011;3290;47.716;9.070;2024-02-28T05:56:04;20.63;;;11.90;;
6513;SDS011;3290;47.716;9.070;2024-02-28T05:58:38;20.13;;;10.60;;
6513;SDS011;3290;47.716;9.070;2024-02-28T06:01:03;20.30;;;12.00;;
6513;SDS011;3290;47.716;9.070;2024-02-28T06:03:28;27.73;;;12.90;;
6513;SDS011;3290;47.716;9.070;2024-02-28T06:05:54;23.20;;;12.00;;
6513;SDS011;3290;47.716;9.070;2024-02-28T06:08:20;22.10;;;11.80;;
6513;SDS011;3290;47.716;9.070;2024-02-28T06:10:45;19.33;;;10.50;;
6513;SDS011;3290;47.716;9.070;2024-02-28T06:13:12;21.23;;;13.33;;
6513;SDS011;3290;47.716;9.070;2024-02-28T06:15:37;20.77;;;10.70;;
6513;SDS011;3290;47.716;9.070;2024-02-28T06:18:02;22.27;;;12.10;;
6513;SDS011;3290;47.716;9.070;2024-02-28T06:20:28;19.70;;;9.93;;
6513;SDS011;3290;47.716;9.070;2024-02-28T06:22:53;19.17;;;11.43;;
6513;SDS011;3290;47.716;9.070;2024-02-28T06:25:19;19.67;;;11.03;;
6513;SDS011;3290;47.716;9.070;2024-02-28T06:27:47;20.30;;;12.30;;
6513;SDS011;3290;47.716;9.070;2024-02-28T06:30:12;19.27;;;10.80;;
6513;SDS011;3290;47.716;9.070;2024-02-28T06:32:38;19.13;;;11.90;;
6513;SDS011;3290;47.716;9.070;2024-02-28T06:35:04;21.13;;;11.63;;
6513;SDS011;3290;47.716;9.070;2024-02-28T06:37:30;20.50;;;11.60;;
6513;SDS011;3290;47.716;9.070;2024-02-28T06:39:55;24.67;;;12.43;;
6513;SDS011;3290;47.716;9.070;2024-02-28T06:42:20;18.50;;;11.20;;
6513;SDS011;3290;47.716;9.070;2024-02-28T06:44:46;24.10;;;10.30;;
6513;SDS011;3290;47.716;9.070;2024-02-28T06:47:11;31.80;;;10.97;;
6513;SDS011;3290;47.716;9.070;2024-02-28T06:49:36;24.40;;;12.03;;
6513;SDS011;3290;47.716;9.070;2024-02-28T06:52:02;21.10;;;12.27;;
6513;SDS011;3290;47.716;9.070;2024-02-28T06:54:27;20.60;;;12.00;;
6513;SDS011;3290;47.716;9.070;2024-02-28T06:56:53;20.93;;;11.27;;
6513;SDS011;3290;47.716;9.070;2024-02-28T06:59:19;16.33;;;10.70;;
6513;SDS011;3290;47.716;9.070;2024-02-28T07:01:45;19.97;;;10.90;;
6513;SDS011;3290;47.716;9.070;2024-02-28T07:04:10;23.30;;;11.37;;
6513;SDS011;3290;47.716;9.070;2024-02-28T07:06:36;35.47;;;12.60;;
6513;SDS011;3290;47.716;9.070;2024-02-28T07:09:01;20.30;;;11.97;;
6513;SDS011;3290;47.716;9.070;2024-02-28T07:11:26;21.60;;;11.50;;
6513;SDS011;3290;47.716;9.070;2024-02-28T07:13:52;20.20;;;11.47;;
6513;SDS011;3290;47.716;9.070;2024-02-28T07:16:17;20.30;;;11.90;;
6513;SDS011;3290;47.716;9.070;2024-02-28T07:18:43;19.47;;;10.63;;
6513;SDS011;3290;47.716;9.070;2024-02-28T07:21:08;22.50;;;11.47;;
6513;SDS011;3290;47.716;9.070;2024-02-28T07:23:33;20.30;;;11.03;;
6513;SDS011;3290;47.716;9.070;2024-02-28T07:25:59;20.23;;;11.50;;
6513;SDS011;3290;47.716;9.070;2024-02-28T07:28:24;26.83;;;12.77;;
6513;SDS011;3290;47.716;9.070;2024-02-28T07:30:49;24.30;;;11.80;;
6513;SDS011;3290;47.716;9.070;2024-02-28T07:33:15;21.77;;;11.73;;
6513;SDS011;3290;47.716;9.070;2024-02-28T07:35:51;22.80;;;11.70;;
6513;SDS011;3290;47.716;9.070;2024-02-28T07:38:17;19.70;;;12.03;;
6513;SDS011;3290;47.716;9.070;2024-02-28T07:40:45;20.77;;;12.80;;
6513;SDS011;3290;47.716;9.070;2024-02-28T07:43:10;22.50;;;13.40;;
6513;SDS011;3290;47.716;9.070;2024-02-28T07:45:36;25.03;;;11.87;;
6513;SDS011;3290;47.716;9.070;2024-02-28T07:48:01;22.33;;;12.60;;
6513;SDS011;3290;47.716;9.070;2024-02-28T07:50:27;24.97;;;13.03;;
6513;SDS011;3290;47.716;9.070;2024-02-28T07:52:53;22.37;;;12.10;;
6513;SDS011;3290;47.716;9.070;2024-02-28T07:55:20;29.90;;;12.80;;
6513;SDS011;3290;47.716;9.070;2024-02-28T07:57:47;24.77;;;12.60;;
6513;SDS011;3290;47.716;9.070;2024-02-28T08:00:12;24.40;;;13.60;;
6513;SDS011;3290;47.716;9.070;2024-02-28T08:02:38;22.60;;;12.70;;
6513;SDS011;3290;47.716;9.070;2024-02-28T08:05:04;20.33;;;11.23;;
6513;SDS011;3290;47.716;9.070;2024-02-28T08:07:32;22.27;;;13.03;;
6513;SDS011;3290;47.716;9.070;2024-02-28T08:09:57;24.57;;;12.00;;
6513;SDS011;3290;47.716;9.070;2024-02-28T08:12:23;20.50;;;12.47;;
6513;SDS011;3290;47.716;9.070;2024-02-28T08:14:48;25.27;;;13.73;;
6513;SDS011;3290;47.716;9.070;2024-02-28T08:17:13;22.80;;;12.90;;
6513;SDS011;3290;47.716;9.070;2024-02-28T08:19:40;20.63;;;11.63;;
6513;SDS011;3290;47.716;9.070;2024-02-28T08:22:06;21.87;;;11.93;;
6513;SDS011;3290;47.716;9.070;2024-02-28T08:24:31;22.90;;;11.50;;
6513;SDS011;3290;47.716;9.070;2024-02-28T08:26:57;21.13;;;12.33;;
6513;SDS011;3290;47.716;9.070;2024-02-28T08:29:22;21.00;;;11.97;;
6513;SDS011;3290;47.716;9.070;2024-02-28T08:31:47;21.97;;;12.10;;
6513;SDS011;3290;47.716;9.070;2024-02-28T08:34:13;21.77;;;11.40;;
6513;SDS011;3290;47.716;9.070;2024-02-28T08:36:38;22.00;;;11.83;;
6513;SDS011;3290;47.716;9.070;2024-02-28T08:39:04;22.03;;;11.40;;
6513;SDS011;3290;47.716;9.070;2024-02-28T08:41:34;23.90;;;12.83;;
6513;SDS011;3290;47.716;9.070;2024-02-28T08:43:59;27.80;;;13.30;;
6513;SDS011;3290;47.716;9.070;2024-02-28T08:46:25;27.00;;;12.97;;
6513;SDS011;3290;47.716;9.070;2024-02-28T08:48:50;24.60;;;13.07;;
6513;SDS011;3290;47.716;9.070;2024-02-28T08:51:16;25.77;;;12.20;;
6513;SDS011;3290;47.716;9.070;2024-02-28T08:53:41;23.23;;;12.33;;
6513;SDS011;3290;47.716;9.070;2024-02-28T08:56:06;20.93;;;11.53;;
6513;SDS011;3290;47.716;9.070;2024-02-28T08:58:32;29.93;;;13.70;;
6513;SDS011;3290;47.716;9.070;2024-02-28T09:00:57;22.37;;;13.13;;
6513;SDS011;3290;47.716;9.070;2024-02-28T09:03:23;28.00;;;13.30;;
6513;SDS011;3290;47.716;9.070;2024-02-28T09:05:48;24.53;;;13.10;;
6513;SDS011;3290;47.716;9.070;2024-02-28T09:08:14;23.43;;;12.20;;
6513;SDS011;3290;47.716;9.070;2024-02-28T09:10:39;25.00;;;13.40;;
6513;SDS011;3290;47.716;9.070;2024-02-28T09:13:04;23.83;;;13.53;;
6513;SDS011;3290;47.716;9.070;2024-02-28T09:15:31;24.47;;;13.03;;
6513;SDS011;3290;47.716;9.070;2024-02-28T09:17:57;22.97;;;12.60;;
6513;SDS011;3290;47.716;9.070;2024-02-28T09:20:22;22.77;;;13.37;;
6513;SDS011;3290;47.716;9.070;2024-02-28T09:22:48;23.40;;;13.30;;
6513;SDS011;3290;47.716;9.070;2024-02-28T09:25:13;25.10;;;13.77;;
6513;SDS011;3290;47.716;9.070;2024-02-28T09:27:40;21.83;;;13.57;;
6513;SDS011;3290;47.716;9.070;2024-02-28T09:30:06;24.80;;;13.20;;
6513;SDS011;3290;47.716;9.070;2024-02-28T09:32:32;25.13;;;13.87;;
6513;SDS011;3290;47.716;9.070;2024-02-28T09:34:57;22.50;;;13.07;;
6513;SDS011;3290;47.716;9.070;2024-02-28T09:37:23;26.80;;;12.10;;
6513;SDS011;3290;47.716;9.070;2024-02-28T09:39:50;29.03;;;15.20;;
6513;SDS011;3290;47.716;9.070;2024-02-28T09:42:15;27.27;;;12.87;;
6513;SDS011;3290;47.716;9.070;2024-02-28T09:44:41;24.07;;;12.83;;
6513;SDS011;3290;47.716;9.070;2024-02-28T09:47:08;26.20;;;12.80;;
6513;SDS011;3290;47.716;9.070;2024-02-28T09:49:34;23.27;;;13.73;;
6513;SDS011;3290;47.716;9.070;2024-02-28T09:52:02;26.60;;;12.90;;
6513;SDS011;3290;47.716;9.070;2024-02-28T09:54:28;26.17;;;13.30;;
6513;SDS011;3290;47.716;9.070;2024-02-28T09:56:54;27.70;;;14.47;;
6513;SDS011;3290;47.716;9.070;2024-02-28T09:59:21;24.90;;;13.70;;
6513;SDS011;3290;47.716;9.070;2024-02-28T10:01:57;27.70;;;14.57;;
6513;SDS011;3290;47.716;9.070;2024-02-28T10:04:25;23.00;;;13.20;;
6513;SDS011;3290;47.716;9.070;2024-02-28T10:06:52;26.77;;;13.93;;
6513;SDS011;3290;47.716;9.070;2024-02-28T10:09:18;30.37;;;14.53;;
6513;SDS011;3290;47.716;9.070;2024-02-28T10:11:43;24.33;;;13.60;;
6513;SDS011;3290;47.716;9.070;2024-02-28T10:14:09;27.57;;;13.33;;
6513;SDS011;3290;47.716;9.070;2024-02-28T10:16:35;25.83;;;15.03;;
6513;SDS011;3290;47.716;9.070;2024-02-28T10:19:00;27.50;;;13.63;;
6513;SDS011;3290;47.716;9.070;2024-02-28T10:21:26;25.43;;;14.17;;
6513;SDS011;3290;47.716;9.070;2024-02-28T10:23:51;27.43;;;14.33;;
6513;SDS011;3290;47.716;9.070;2024-02-28T10:26:17;26.60;;;15.00;;
6513;SDS011;3290;47.716;9.070;2024-02-28T10:28:42;26.83;;;13.70;;
6513;SDS011;3290;47.716;9.070;2024-02-28T10:31:10;25.70;;;14.23;;
6513;SDS011;3290;47.716;9.070;2024-02-28T10:33:37;26.20;;;13.17;;
6513;SDS011;3290;47.716;9.070;2024-02-28T10:36:03;32.93;;;15.17;;
6513;SDS011;3290;47.716;9.070;2024-02-28T10:38:30;28.90;;;15.10;;
6513;SDS011;3290;47.716;9.070;2024-02-28T10:40:58;29.23;;;14.77;;
6513;SDS011;3290;47.716;9.070;2024-02-28T10:43:25;30.97;;;16.50;;
6513;SDS011;3290;47.716;9.070;2024-02-28T10:45:54;28.37;;;14.40;;
6513;SDS011;3290;47.716;9.070;2024-02-28T10:48:25;26.00;;;14.67;;
6513;SDS011;3290;47.716;9.070;2024-02-28T10:50:51;25.47;;;14.50;;
6513;SDS011;3290;47.716;9.070;2024-02-28T10:53:16;31.80;;;15.00;;
6513;SDS011;3290;47.716;9.070;2024-02-28T10:55:57;26.53;;;13.60;;
6513;SDS011;3290;47.716;9.070;2024-02-28T10:58:29;25.23;;;14.20;;
6513;SDS011;3290;47.716;9.070;2024-02-28T11:01:01;31.87;;;14.50;;
6513;SDS011;3290;47.716;9.070;2024-02-28T11:03:27;28.90;;;15.83;;
6513;SDS011;3290;47.716;9.070;2024-02-28T11:05:53;32.70;;;16.23;;
6513;SDS011;3290;47.716;9.070;2024-02-28T11:10:56;28.17;;;14.93;;
6513;SDS011;3290;47.716;9.070;2024-02-28T11:13:33;30.30;;;15.30;;
6513;SDS011;3290;47.716;9.070;2024-02-28T11:16:08;29.90;;;14.17;;
6513;SDS011;3290;47.716;9.070;2024-02-28T11:18:34;29.70;;;15.90;;
6513;SDS011;3290;47.716;9.070;2024-02-28T11:20:59;25.43;;;14.57;;
6513;SDS011;3290;47.716;9.070;2024-02-28T11:23:25;30.37;;;15.53;;
6513;SDS011;3290;47.716;9.070;2024-02-28T11:25:51;31.07;;;14.87;;
6513;SDS011;3290;47.716;9.070;2024-02-28T11:28:17;34.30;;;15.40;;
6513;SDS011;3290;47.716;9.070;2024-02-28T11:30:42;27.73;;;15.37;;
6513;SDS011;3290;47.716;9.070;2024-02-28T11:33:07;30.50;;;15.80;;
6513;SDS011;3290;47.716;9.070;2024-02-28T11:35:34;26.80;;;14.23;;
6513;SDS011;3290;47.716;9.070;2024-02-28T11:38:00;30.37;;;15.90;;
6513;SDS011;3290;47.716;9.070;2024-02-28T11:40:25;31.63;;;16.07;;
6513;SDS011;3290;47.716;9.070;2024-02-28T11:42:52;33.20;;;15.73;;
6513;SDS011;3290;47.716;9.070;2024-02-28T11:45:17;28.60;;;16.17;;
6513;SDS011;3290;47.716;9.070;2024-02-28T11:47:44;28.67;;;15.70;;
6513;SDS011;3290;47.716;9.070;2024-02-28T11:50:09;32.50;;;16.97;;
6513;SDS011;3290;47.716;9.070;2024-02-28T11:52:35;28.90;;;16.60;;
6513;SDS011;3290;47.716;9.070;2024-02-28T11:55:00;31.60;;;17.00;;
6513;SDS011;3290;47.716;9.070;2024-02-28T11:57:27;38.43;;;16.80;;
6513;SDS011;3290;47.716;9.070;2024-02-28T11:59:54;27.63;;;17.13;;
6513;SDS011;3290;47.716;9.070;2024-02-28T12:02:19;31.20;;;16.37;;
6513;SDS011;3290;47.716;9.070;2024-02-28T12:04:52;26.40;;;16.07;;
6513;SDS011;3290;47.716;9.070;2024-02-28T12:07:19;33.67;;;16.67;;
6513;SDS011;3290;47.716;9.070;2024-02-28T12:09:44;27.63;;;15.47;;
6513;SDS011;3290;47.716;9.070;2024-02-28T12:12:13;34.00;;;17.43;;
6513;SDS011;3290;47.716;9.070;2024-02-28T12:14:39;35.23;;;16.20;;
6513;SDS011;3290;47.716;9.070;2024-02-28T12:17:04;31.37;;;16.80;;
6513;SDS011;3290;47.716;9.070;2024-02-28T12:19:30;27.97;;;14.67;;
6513;SDS011;3290;47.716;9.070;2024-02-28T12:21:56;30.93;;;15.87;;
6513;SDS011;3290;47.716;9.070;2024-02-28T12:24:21;30.87;;;15.70;;
6513;SDS011;3290;47.716;9.070;2024-02-28T12:26:47;29.53;;;16.63;;
6513;SDS011;3290;47.716;9.070;2024-02-28T12:29:12;35.07;;;17.80;;
6513;SDS011;3290;47.716;9.070;2024-02-28T12:31:38;29.40;;;15.23;;
6513;SDS011;3290;47.716;9.070;2024-02-28T12:34:05;26.07;;;14.50;;
6513;SDS011;3290;47.716;9.070;2024-02-28T12:36:30;27.73;;;15.40;;
6513;SDS011;3290;47.716;9.070;2024-02-28T12:38:57;32.00;;;16.73;;
6513;SDS011;3290;47.716;9.070;2024-02-28T12:41:24;34.17;;;16.90;;
6513;SDS011;3290;47.716;9.070;2024-02-28T12:43:50;26.80;;;15.60;;
6513;SDS011;3290;47.716;9.070;2024-02-28T12:46:15;28.13;;;15.77;;
6513;SDS011;3290;47.716;9.070;2024-02-28T12:48:41;27.40;;;15.73;;
6513;SDS011;3290;47.716;9.070;2024-02-28T12:51:08;28.83;;;15.73;;
6513;SDS011;3290;47.716;9.070;2024-02-28T12:53:36;34.87;;;17.53;;
6513;SDS011;3290;47.716;9.070;2024-02-28T12:56:01;31.00;;;16.00;;
6513;SDS011;3290;47.716;9.070;2024-02-28T12:58:27;27.20;;;15.00;;
6513;SDS011;3290;47.716;9.070;2024-02-28T13:00:53;30.60;;;16.57;;
6513;SDS011;3290;47.716;9.070;2024-02-28T13:03:18;32.53;;;16.27;;
6513;SDS011;3290;47.716;9.070;2024-02-28T13:05:44;31.43;;;17.07;;
6513;SDS011;3290;47.716;9.070;2024-02-28T13:08:09;29.63;;;17.47;;
6513;SDS011;3290;47.716;9.070;2024-02-28T13:10:34;30.57;;;15.40;;
6513;SDS011;3290;47.716;9.070;2024-02-28T13:13:04;38.07;;;18.57;;
6513;SDS011;3290;47.716;9.070;2024-02-28T13:15:31;32.70;;;16.30;;
6513;SDS011;3290;47.716;9.070;2024-02-28T13:17:56;30.33;;;16.03;;
6513;SDS011;3290;47.716;9.070;2024-02-28T13:20:22;34.97;;;16.63;;
6513;SDS011;3290;47.716;9.070;2024-02-28T13:22:47;31.80;;;16.87;;
6513;SDS011;3290;47.716;9.070;2024-02-28T13:25:13;31.17;;;16.70;;
6513;SDS011;3290;47.716;9.070;2024-02-28T13:27:39;37.93;;;19.43;;
6513;SDS011;3290;47.716;9.070;2024-02-28T13:30:05;29.33;;;16.93;;
6513;SDS011;3290;47.716;9.070;2024-02-28T13:32:31;49.20;;;25.40;;
6513;SDS011;3290;47.716;9.070;2024-02-28T13:34:56;32.20;;;18.00;;
6513;SDS011;3290;47.716;9.070;2024-02-28T13:37:21;36.57;;;20.30;;
6513;SDS011;3290;47.716;9.070;2024-02-28T13:39:47;31.37;;;17.30;;
6513;SDS011;3290;47.716;9.070;2024-02-28T13:42:12;33.60;;;18.50;;
6513;SDS011;3290;47.716;9.070;2024-02-28T13:44:38;46.90;;;19.00;;
6513;SDS011;3290;47.716;9.070;2024-02-28T13:47:05;31.63;;;17.87;;
6513;SDS011;3290;47.716;9.070;2024-02-28T13:49:31;35.77;;;19.70;;
6513;SDS011;3290;47.716;9.070;2024-02-28T13:51:56;33.63;;;18.00;;
6513;SDS011;3290;47.716;9.070;2024-02-28T13:54:21;33.30;;;17.80;;
6513;SDS011;3290;47.716;9.070;2024-02-28T13:56:47;34.50;;;17.83;;
6513;SDS011;3290;47.716;9.070;2024-02-28T13:59:12;35.63;;;18.53;;
6513;SDS011;3290;47.716;9.070;2024-02-28T14:01:38;42.57;;;22.83;;
6513;SDS011;3290;47.716;9.070;2024-02-28T14:04:03;62.80;;;34.57;;
6513;SDS011;3290;47.716;9.070;2024-02-28T14:06:29;34.80;;;19.97;;
6513;SDS011;3290;47.716;9.070;2024-02-28T14:08:55;36.63;;;19.07;;
6513;SDS011;3290;47.716;9.070;2024-02-28T14:11:21;38.97;;;21.10;;
6513;SDS011;3290;47.716;9.070;2024-02-28T14:13:47;35.67;;;18.17;;
6513;SDS011;3290;47.716;9.070;2024-02-28T14:16:12;29.10;;;17.67;;
6513;SDS011;3290;47.716;9.070;2024-02-28T14:18:38;25.83;;;15.97;;
6513;SDS011;3290;47.716;9.070;2024-02-28T14:21:04;31.83;;;16.53;;
6513;SDS011;3290;47.716;9.070;2024-02-28T14:23:29;30.60;;;16.30;;
6513;SDS011;3290;47.716;9.070;2024-02-28T14:25:55;32.57;;;16.73;;
6513;SDS011;3290;47.716;9.070;2024-02-28T14:28:21;30.33;;;17.77;;
6513;SDS011;3290;47.716;9.070;2024-02-28T14:30:47;37.67;;;18.40;;
6513;SDS011;3290;47.716;9.070;2024-02-28T14:33:14;42.37;;;18.67;;
6513;SDS011;3290;47.716;9.070;2024-02-28T14:35:39;32.83;;;17.00;;
6513;SDS011;3290;47.716;9.070;2024-02-28T14:38:06;35.87;;;19.63;;
6513;SDS011;3290;47.716;9.070;2024-02-28T14:40:31;36.83;;;19.10;;
6513;SDS011;3290;47.716;9.070;2024-02-28T14:42:57;29.57;;;17.60;;